sensor_id;sensor_type;location;lat;lon;timestamp;P1;durP1;ratioP1;P2;durP2;ratioP2
9150;SDS011;4610;50.006;7.490;2023-03-01T00:00:53;9.33;;;5.07;;
9150;SDS011;4610;50.006;7.490;2023-03-01T00:03:20;8.13;;;5.77;;
9150;SDS011;4610;50.006;7.490;2023-03-01T00:05:47;10.83;;;6.03;;
9150;SDS011;4610;50.006;7.490;2023-03-01T00:08:15;9.40;;;6.00;;
9150;SDS011;4610;50.006;7.490;2023-03-01T00:10:42;9.00;;;6.10;;
9150;SDS011;4610;50.006;7.490;2023-03-01T00:13:09;11.63;;;6.13;;
9150;SDS011;4610;50.006;7.490;2023-03-01T00:15:38;12.17;;;6.37;;
9150;SDS011;4610;50.006;7.490;2023-03-01T00:18:06;10.57;;;6.00;;
9150;SDS011;4610;50.006;7.490;2023-03-01T00:20:33;9.17;;;6.30;;
9150;SDS011;4610;50.006;7.490;2023-03-01T00:23:00;8.13;;;5.90;;
9150;SDS011;4610;50.006;7.490;2023-03-01T00:25:28;9.93;;;5.90;;
9150;SDS011;4610;50.006;7.490;2023-03-01T00:27:55;13.83;;;5.70;;
9150;SDS011;4610;50.006;7.490;2023-03-01T00:30:22;7.23;;;5.47;;
9150;SDS011;4610;50.006;7.490;2023-03-01T00:32:49;10.30;;;5.83;;
9150;SDS011;4610;50.006;7.490;2023-03-01T00:35:15;7.00;;;5.03;;
9150;SDS011;4610;50.006;7.490;2023-03-01T00:37:42;7.83;;;5.00;;
9150;SDS011;4610;50.006;7.490;2023-03-01T00:40:09;13.57;;;6.37;;
9150;SDS011;4610;50.006;7.490;2023-03-01T00:42:38;8.17;;;5.70;;
9150;SDS011;4610;50.006;7.490;2023-03-01T00:45:06;7.27;;;5.30;;
9150;SDS011;4610;50.006;7.490;2023-03-01T00:47:34;11.67;;;6.30;;
9150;SDS011;4610;50.006;7.490;2023-03-01T00:50:00;8.37;;;5.67;;
9150;SDS011;4610;50.006;7.490;2023-03-01T00:52:27;9.60;;;5.87;;
9150;SDS011;4610;50.006;7.490;2023-03-01T00:54:54;11.30;;;6.80;;
9150;SDS011;4610;50.006;7.490;2023-03-01T00:57:22;10.67;;;5.57;;
9150;SDS011;4610;50.006;7.490;2023-03-01T00:59:51;8.27;;;5.70;;
9150;SDS011;4610;50.006;7.490;2023-03-01T01:02:18;10.53;;;6.00;;
9150;SDS011;4610;50.006;7.490;2023-03-01T01:04:45;9.20;;;5.53;;
9150;SDS011;4610;50.006;7.490;2023-03-01T01:07:12;9.43;;;6.00;;
9150;SDS011;4610;50.006;7.490;2023-03-01T01:09:39;10.50;;;5.83;;
9150;SDS011;4610;50.006;7.490;2023-03-01T01:12:06;11.23;;;6.23;;
9150;SDS011;4610;50.006;7.490;2023-03-01T01:14:33;10.33;;;6.47;;
9150;SDS011;4610;50.006;7.490;2023-03-01T01:17:01;10.37;;;6.63;;
9150;SDS011;4610;50.006;7.490;2023-03-01T01:19:28;8.90;;;5.83;;
9150;SDS011;4610;50.006;7.490;2023-03-01T01:21:55;8.97;;;6.13;;
9150;SDS011;4610;50.006;7.490;2023-03-01T01:24:22;10.80;;;6.00;;
9150;SDS011;4610;50.006;7.490;2023-03-01T01:26:49;9.67;;;6.00;;
9150;SDS011;4610;50.006;7.490;2023-03-01T01:29:16;10.70;;;6.40;;
9150;SDS011;4610;50.006;7.490;2023-03-01T01:31:43;8.37;;;5.80;;
9150;SDS011;4610;50.006;7.490;2023-03-01T01:34:14;11.93;;;6.73;;
9150;SDS011;4610;50.006;7.490;2023-03-01T01:36:42;9.77;;;6.47;;
9150;SDS011;4610;50.006;7.490;2023-03-01T01:39:09;11.20;;;6.57;;
9150;SDS011;4610;50.006;7.490;2023-03-01T01:41:38;10.93;;;6.40;;
9150;SDS011;4610;50.006;7.490;2023-03-01T01:44:18;12.40;;;6.90;;
9150;SDS011;4610;50.006;7.490;2023-03-01T01:46:47;10.37;;;6.07;;
9150;SDS011;4610;50.006;7.490;2023-03-01T01:49:21;9.40;;;6.33;;
9150;SDS011;4610;50.006;7.490;2023-03-01T01:51:52;11.40;;;6.67;;
9150;SDS011;4610;50.006;7.490;2023-03-01T01:54:24;11.73;;;6.50;;
9150;SDS011;4610;50.006;7.490;2023-03-01T01:56:55;10.83;;;6.90;;
9150;SDS011;4610;50.006;7.490;2023-03-01T01:59:26;11.00;;;6.57;;
9150;SDS011;4610;50.006;7.490;2023-03-01T02:01:54;11.90;;;6.77;;
9150;SDS011;4610;50.006;7.490;2023-03-01T02:04:23;10.30;;;6.47;;
9150;SDS011;4610;50.006;7.490;2023-03-01T02:06:51;12.07;;;7.20;;
9150;SDS011;4610;50.006;7.490;2023-03-01T02:09:24;10.87;;;6.90;;
9150;SDS011;4610;50.006;7.490;2023-03-01T02:11:51;9.03;;;6.33;;
9150;SDS011;4610;50.006;7.490;2023-03-01T02:14:19;12.00;;;6.97;;
9150;SDS011;4610;50.006;7.490;2023-03-01T02:16:46;11.90;;;7.00;;
9150;SDS011;4610;50.006;7.490;2023-03-01T02:19:15;10.50;;;6.60;;
9150;SDS011;4610;50.006;7.490;2023-03-01T02:21:55;10.27;;;6.23;;
9150;SDS011;4610;50.006;7.490;2023-03-01T02:24:31;14.93;;;6.97;;
9150;SDS011;4610;50.006;7.490;2023-03-01T02:27:03;8.87;;;6.37;;
9150;SDS011;4610;50.006;7.490;2023-03-01T02:29:32;10.97;;;6.83;;
9150;SDS011;4610;50.006;7.490;2023-03-01T02:31:59;10.77;;;7.03;;
9150;SDS011;4610;50.006;7.490;2023-03-01T02:34:27;12.13;;;7.10;;
9150;SDS011;4610;50.006;7.490;2023-03-01T02:36:56;10.47;;;7.03;;
9150;SDS011;4610;50.006;7.490;2023-03-01T02:39:26;10.40;;;6.60;;
9150;SDS011;4610;50.006;7.490;2023-03-01T02:41:56;11.23;;;6.77;;
9150;SDS011;4610;50.006;7.490;2023-03-01T02:44:24;10.57;;;6.73;;
9150;SDS011;4610;50.006;7.490;2023-03-01T02:46:53;11.43;;;7.10;;
9150;SDS011;4610;50.006;7.490;2023-03-01T02:49:23;8.27;;;6.10;;
9150;SDS011;4610;50.006;7.490;2023-03-01T02:51:56;10.83;;;7.17;;
9150;SDS011;4610;50.006;7.490;2023-03-01T02:54:58;16.30;;;8.07;;
9150;SDS011;4610;50.006;7.490;2023-03-01T02:57:27;10.73;;;7.23;;
9150;SDS011;4610;50.006;7.490;2023-03-01T02:59:56;14.10;;;7.57;;
9150;SDS011;4610;50.006;7.490;2023-03-01T03:02:28;13.27;;;7.83;;
9150;SDS011;4610;50.006;7.490;2023-03-01T03:05:03;12.90;;;8.17;;
9150;SDS011;4610;50.006;7.490;2023-03-01T03:07:33;13.73;;;8.40;;
9150;SDS011;4610;50.006;7.490;2023-03-01T03:10:00;12.40;;;7.63;;
9150;SDS011;4610;50.006;7.490;2023-03-01T03:12:27;11.97;;;7.73;;
9150;SDS011;4610;50.006;7.490;2023-03-01T03:14:54;11.17;;;7.20;;
9150;SDS011;4610;50.006;7.490;2023-03-01T03:17:21;11.57;;;7.33;;
9150;SDS011;4610;50.006;7.490;2023-03-01T03:19:49;10.57;;;7.53;;
9150;SDS011;4610;50.006;7.490;2023-03-01T03:22:16;11.03;;;7.23;;
9150;SDS011;4610;50.006;7.490;2023-03-01T03:24:43;10.80;;;7.40;;
9150;SDS011;4610;50.006;7.490;2023-03-01T03:27:09;16.40;;;7.67;;
9150;SDS011;4610;50.006;7.490;2023-03-01T03:29:36;12.63;;;7.43;;
9150;SDS011;4610;50.006;7.490;2023-03-01T03:32:03;12.00;;;7.30;;
9150;SDS011;4610;50.006;7.490;2023-03-01T03:34:30;12.80;;;7.50;;
9150;SDS011;4610;50.006;7.490;2023-03-01T03:36:58;12.40;;;8.13;;
9150;SDS011;4610;50.006;7.490;2023-03-01T03:39:25;12.40;;;7.37;;
9150;SDS011;4610;50.006;7.490;2023-03-01T03:41:53;13.13;;;7.57;;
9150;SDS011;4610;50.006;7.490;2023-03-01T03:44:20;13.77;;;7.67;;
9150;SDS011;4610;50.006;7.490;2023-03-01T03:46:46;17.53;;;8.17;;
9150;SDS011;4610;50.006;7.490;2023-03-01T03:49:13;11.03;;;7.43;;
9150;SDS011;4610;50.006;7.490;2023-03-01T03:51:40;17.10;;;7.23;;
9150;SDS011;4610;50.006;7.490;2023-03-01T03:54:08;12.40;;;7.07;;
9150;SDS011;4610;50.006;7.490;2023-03-01T03:56:36;12.97;;;7.80;;
9150;SDS011;4610;50.006;7.490;2023-03-01T03:59:02;12.30;;;7.27;;
9150;SDS011;4610;50.006;7.490;2023-03-01T04:01:30;11.60;;;7.67;;
9150;SDS011;4610;50.006;7.490;2023-03-01T04:03:57;14.10;;;7.50;;
9150;SDS011;4610;50.006;7.490;2023-03-01T04:06:29;14.23;;;7.87;;
9150;SDS011;4610;50.006;7.490;2023-03-01T04:08:56;13.17;;;7.50;;
9150;SDS011;4610;50.006;7.490;2023-03-01T04:11:26;17.57;;;7.93;;
9150;SDS011;4610;50.006;7.490;2023-03-01T04:13:55;12.13;;;8.00;;
9150;SDS011;4610;50.006;7.490;2023-03-01T04:16:23;14.73;;;8.80;;
9150;SDS011;4610;50.006;7.490;2023-03-01T04:18:50;13.50;;;8.40;;
9150;SDS011;4610;50.006;7.490;2023-03-01T04:21:17;14.47;;;8.73;;
9150;SDS011;4610;50.006;7.490;2023-03-01T04:23:45;12.77;;;8.13;;
9150;SDS011;4610;50.006;7.490;2023-03-01T04:26:12;12.60;;;7.90;;
9150;SDS011;4610;50.006;7.490;2023-03-01T04:28:40;13.97;;;7.17;;
9150;SDS011;4610;50.006;7.490;2023-03-01T04:31:10;11.37;;;7.30;;
9150;SDS011;4610;50.006;7.490;2023-03-01T04:33:39;13.00;;;7.70;;
9150;SDS011;4610;50.006;7.490;2023-03-01T04:36:07;12.57;;;7.97;;
9150;SDS011;4610;50.006;7.490;2023-03-01T04:38:35;12.00;;;7.13;;
9150;SDS011;4610;50.006;7.490;2023-03-01T04:41:03;12.87;;;8.07;;
9150;SDS011;4610;50.006;7.490;2023-03-01T04:43:30;13.50;;;8.90;;
9150;SDS011;4610;50.006;7.490;2023-03-01T04:46:04;17.30;;;8.17;;
9150;SDS011;4610;50.006;7.490;2023-03-01T04:48:33;12.30;;;8.50;;
9150;SDS011;4610;50.006;7.490;2023-03-01T04:51:01;14.00;;;8.40;;
9150;SDS011;4610;50.006;7.490;2023-03-01T04:53:28;13.40;;;8.00;;
9150;SDS011;4610;50.006;7.490;2023-03-01T04:55:56;12.77;;;7.60;;
9150;SDS011;4610;50.006;7.490;2023-03-01T04:58:23;21.47;;;8.70;;
9150;SDS011;4610;50.006;7.490;2023-03-01T05:00:51;12.20;;;8.47;;
9150;SDS011;4610;50.006;7.490;2023-03-01T05:03:19;14.00;;;8.73;;
9150;SDS011;4610;50.006;7.490;2023-03-01T05:05:47;16.20;;;8.47;;
9150;SDS011;4610;50.006;7.490;2023-03-01T05:08:16;15.53;;;8.83;;
9150;SDS011;4610;50.006;7.490;2023-03-01T05:10:44;15.83;;;9.03;;
9150;SDS011;4610;50.006;7.490;2023-03-01T05:13:15;15.27;;;8.40;;
9150;SDS011;4610;50.006;7.490;2023-03-01T05:15:46;15.17;;;8.80;;
9150;SDS011;4610;50.006;7.490;2023-03-01T05:18:13;13.30;;;8.47;;
9150;SDS011;4610;50.006;7.490;2023-03-01T05:20:41;15.03;;;8.10;;
9150;SDS011;4610;50.006;7.490;2023-03-01T05:23:08;15.37;;;9.20;;
9150;SDS011;4610;50.006;7.490;2023-03-01T05:25:35;14.30;;;8.57;;
9150;SDS011;4610;50.006;7.490;2023-03-01T05:28:05;18.63;;;9.23;;
9150;SDS011;4610;50.006;7.490;2023-03-01T05:30:34;16.80;;;8.80;;
9150;SDS011;4610;50.006;7.490;2023-03-01T05:33:01;14.47;;;8.63;;
9150;SDS011;4610;50.006;7.490;2023-03-01T05:35:28;15.93;;;9.17;;
9150;SDS011;4610;50.006;7.490;2023-03-01T05:37:58;14.50;;;9.37;;
9150;SDS011;4610;50.006;7.490;2023-03-01T05:40:25;15.97;;;9.30;;
9150;SDS011;4610;50.006;7.490;2023-03-01T05:42:53;15.30;;;8.80;;
9150;SDS011;4610;50.006;7.490;2023-03-01T05:45:22;13.87;;;9.20;;
9150;SDS011;4610;50.006;7.490;2023-03-01T05:47:50;12.93;;;8.17;;
9150;SDS011;4610;50.006;7.490;2023-03-01T05:50:20;13.17;;;8.13;;
9150;SDS011;4610;50.006;7.490;2023-03-01T05:52:48;15.33;;;8.60;;
9150;SDS011;4610;50.006;7.490;2023-03-01T05:55:19;14.27;;;9.43;;
9150;SDS011;4610;50.006;7.490;2023-03-01T05:57:47;12.97;;;8.63;;
9150;SDS011;4610;50.006;7.490;2023-03-01T06:00:15;13.77;;;8.67;;
9150;SDS011;4610;50.006;7.490;2023-03-01T06:02:43;19.13;;;10.07;;
9150;SDS011;4610;50.006;7.490;2023-03-01T06:05:11;18.23;;;9.20;;
9150;SDS011;4610;50.006;7.490;2023-03-01T06:07:39;16.30;;;9.17;;
9150;SDS011;4610;50.006;7.490;2023-03-01T06:10:06;14.57;;;8.63;;
9150;SDS011;4610;50.006;7.490;2023-03-01T06:12:36;13.07;;;8.83;;
9150;SDS011;4610;50.006;7.490;2023-03-01T06:15:04;16.50;;;9.67;;
9150;SDS011;4610;50.006;7.490;2023-03-01T06:17:32;16.93;;;9.60;;
9150;SDS011;4610;50.006;7.490;2023-03-01T06:20:02;22.60;;;9.60;;
9150;SDS011;4610;50.006;7.490;2023-03-01T06:22:29;18.20;;;9.77;;
9150;SDS011;4610;50.006;7.490;2023-03-01T06:24:56;15.47;;;9.30;;
9150;SDS011;4610;50.006;7.490;2023-03-01T06:27:23;17.27;;;9.57;;
9150;SDS011;4610;50.006;7.490;2023-03-01T06:29:51;16.20;;;9.33;;
9150;SDS011;4610;50.006;7.490;2023-03-01T06:32:18;15.63;;;9.47;;
9150;SDS011;4610;50.006;7.490;2023-03-01T06:34:45;15.23;;;9.93;;
9150;SDS011;4610;50.006;7.490;2023-03-01T06:37:12;18.33;;;10.27;;
9150;SDS011;4610;50.006;7.490;2023-03-01T06:39:38;13.87;;;9.60;;
9150;SDS011;4610;50.006;7.490;2023-03-01T06:42:05;18.23;;;9.90;;
9150;SDS011;4610;50.006;7.490;2023-03-01T06:44:35;18.43;;;9.90;;
9150;SDS011;4610;50.006;7.490;2023-03-01T06:47:03;3.80;;;2.83;;
9150;SDS011;4610;50.006;7.490;2023-03-01T06:49:30;20.40;;;12.73;;
9150;SDS011;4610;50.006;7.490;2023-03-01T06:51:57;14.47;;;9.00;;
9150;SDS011;4610;50.006;7.490;2023-03-01T06:54:24;16.13;;;9.33;;
9150;SDS011;4610;50.006;7.490;2023-03-01T06:56:50;16.50;;;9.27;;
9150;SDS011;4610;50.006;7.490;2023-03-01T06:59:17;12.97;;;8.33;;
9150;SDS011;4610;50.006;7.490;2023-03-01T07:01:45;14.37;;;9.20;;
9150;SDS011;4610;50.006;7.490;2023-03-01T07:04:13;15.77;;;9.07;;
9150;SDS011;4610;50.006;7.490;2023-03-01T07:06:40;16.13;;;9.03;;
9150;SDS011;4610;50.006;7.490;2023-03-01T07:09:06;15.53;;;9.30;;
9150;SDS011;4610;50.006;7.490;2023-03-01T07:11:33;16.23;;;9.80;;
9150;SDS011;4610;50.006;7.490;2023-03-01T07:14:00;16.13;;;9.13;;
9150;SDS011;4610;50.006;7.490;2023-03-01T07:16:27;16.00;;;9.83;;
9150;SDS011;4610;50.006;7.490;2023-03-01T07:18:54;15.77;;;8.90;;
9150;SDS011;4610;50.006;7.490;2023-03-01T07:21:22;17.93;;;10.17;;
9150;SDS011;4610;50.006;7.490;2023-03-01T07:23:48;16.10;;;10.33;;
9150;SDS011;4610;50.006;7.490;2023-03-01T07:26:15;18.80;;;10.07;;
9150;SDS011;4610;50.006;7.490;2023-03-01T07:28:42;19.97;;;10.00;;
9150;SDS011;4610;50.006;7.490;2023-03-01T07:31:09;19.20;;;9.87;;
9150;SDS011;4610;50.006;7.490;2023-03-01T07:33:36;15.77;;;9.93;;
9150;SDS011;4610;50.006;7.490;2023-03-01T07:36:03;15.77;;;10.03;;
9150;SDS011;4610;50.006;7.490;2023-03-01T07:38:32;19.27;;;10.77;;
9150;SDS011;4610;50.006;7.490;2023-03-01T07:40:59;19.03;;;10.47;;
9150;SDS011;4610;50.006;7.490;2023-03-01T07:43:28;20.43;;;11.20;;
9150;SDS011;4610;50.006;7.490;2023-03-01T07:45:57;24.27;;;13.23;;
9150;SDS011;4610;50.006;7.490;2023-03-01T07:48:25;18.63;;;9.87;;
9150;SDS011;4610;50.006;7.490;2023-03-01T07:50:52;18.27;;;10.57;;
9150;SDS011;4610;50.006;7.490;2023-03-01T07:53:18;16.43;;;10.20;;
9150;SDS011;4610;50.006;7.490;2023-03-01T07:55:47;19.00;;;9.87;;
9150;SDS011;4610;50.006;7.490;2023-03-01T07:58:13;14.87;;;9.67;;
9150;SDS011;4610;50.006;7.490;2023-03-01T08:00:40;15.77;;;8.97;;
9150;SDS011;4610;50.006;7.490;2023-03-01T08:03:07;15.43;;;9.30;;
9150;SDS011;4610;50.006;7.490;2023-03-01T08:05:34;13.20;;;8.30;;
9150;SDS011;4610;50.006;7.490;2023-03-01T08:08:00;15.20;;;9.07;;
9150;SDS011;4610;50.006;7.490;2023-03-01T08:10:27;17.47;;;9.73;;
9150;SDS011;4610;50.006;7.490;2023-03-01T08:12:55;12.47;;;8.27;;
9150;SDS011;4610;50.006;7.490;2023-03-01T08:15:22;15.17;;;8.40;;
9150;SDS011;4610;50.006;7.490;2023-03-01T08:17:49;11.90;;;7.73;;
9150;SDS011;4610;50.006;7.490;2023-03-01T08:20:16;14.40;;;7.83;;
9150;SDS011;4610;50.006;7.490;2023-03-01T08:22:43;14.83;;;8.77;;
9150;SDS011;4610;50.006;7.490;2023-03-01T08:25:10;13.90;;;8.90;;
9150;SDS011;4610;50.006;7.490;2023-03-01T08:27:36;13.43;;;8.73;;
9150;SDS011;4610;50.006;7.490;2023-03-01T08:30:05;12.60;;;8.70;;
9150;SDS011;4610;50.006;7.490;2023-03-01T08:32:35;13.77;;;9.17;;
9150;SDS011;4610;50.006;7.490;2023-03-01T08:35:03;12.43;;;8.27;;
9150;SDS011;4610;50.006;7.490;2023-03-01T08:37:31;14.70;;;8.50;;
9150;SDS011;4610;50.006;7.490;2023-03-01T08:39:58;13.17;;;8.30;;
9150;SDS011;4610;50.006;7.490;2023-03-01T08:42:25;12.77;;;8.03;;
9150;SDS011;4610;50.006;7.490;2023-03-01T08:44:52;13.53;;;8.10;;
9150;SDS011;4610;50.006;7.490;2023-03-01T08:47:20;13.60;;;8.57;;
9150;SDS011;4610;50.006;7.490;2023-03-01T08:49:46;13.20;;;7.93;;
9150;SDS011;4610;50.006;7.490;2023-03-01T08:52:15;7.67;;;4.40;;
9150;SDS011;4610;50.006;7.490;2023-03-01T08:54:42;11.97;;;8.00;;
9150;SDS011;4610;50.006;7.490;2023-03-01T08:57:09;12.10;;;8.50;;
9150;SDS011;4610;50.006;7.490;2023-03-01T08:59:36;12.67;;;8.07;;
9150;SDS011;4610;50.006;7.490;2023-03-01T09:02:03;13.97;;;8.90;;
9150;SDS011;4610;50.006;7.490;2023-03-01T09:04:31;13.17;;;8.53;;
9150;SDS011;4610;50.006;7.490;2023-03-01T09:06:58;12.70;;;8.63;;
9150;SDS011;4610;50.006;7.490;2023-03-01T09:09:25;13.07;;;8.40;;
9150;SDS011;4610;50.006;7.490;2023-03-01T09:11:52;13.03;;;8.00;;
9150;SDS011;4610;50.006;7.490;2023-03-01T09:14:19;16.07;;;8.47;;
9150;SDS011;4610;50.006;7.490;2023-03-01T09:16:45;15.97;;;8.97;;
9150;SDS011;4610;50.006;7.490;2023-03-01T09:19:12;12.30;;;8.47;;
9150;SDS011;4610;50.006;7.490;2023-03-01T09:21:40;13.27;;;8.00;;
9150;SDS011;4610;50.006;7.490;2023-03-01T09:24:18;13.93;;;8.63;;
9150;SDS011;4610;50.006;7.490;2023-03-01T09:26:46;13.70;;;9.00;;
9150;SDS011;4610;50.006;7.490;2023-03-01T09:29:13;11.53;;;8.13;;
9150;SDS011;4610;50.006;7.490;2023-03-01T09:31:41;13.73;;;8.50;;
9150;SDS011;4610;50.006;7.490;2023-03-01T09:34:08;12.63;;;7.80;;
9150;SDS011;4610;50.006;7.490;2023-03-01T09:36:35;12.47;;;8.60;;
9150;SDS011;4610;50.006;7.490;2023-03-01T09:39:03;13.47;;;8.37;;
9150;SDS011;4610;50.006;7.490;2023-03-01T09:41:37;13.37;;;9.17;;
9150;SDS011;4610;50.006;7.490;2023-03-01T09:44:18;12.87;;;8.60;;
9150;SDS011;4610;50.006;7.490;2023-03-01T09:46:53;13.97;;;8.97;;
9150;SDS011;4610;50.006;7.490;2023-03-01T09:49:20;15.67;;;8.77;;
9150;SDS011;4610;50.006;7.490;2023-03-01T09:51:54;13.53;;;8.43;;
9150;SDS011;4610;50.006;7.490;2023-03-01T09:54:25;13.93;;;8.07;;
9150;SDS011;4610;50.006;7.490;2023-03-01T09:56:59;12.03;;;8.03;;
9150;SDS011;4610;50.006;7.490;2023-03-01T09:59:35;12.83;;;8.23;;
9150;SDS011;4610;50.006;7.490;2023-03-01T10:02:21;14.30;;;8.27;;
9150;SDS011;4610;50.006;7.490;2023-03-01T10:04:52;15.13;;;8.67;;
9150;SDS011;4610;50.006;7.490;2023-03-01T10:07:27;14.50;;;8.30;;
9150;SDS011;4610;50.006;7.490;2023-03-01T10:10:01;13.20;;;7.80;;
9150;SDS011;4610;50.006;7.490;2023-03-01T10:12:33;13.57;;;8.17;;
9150;SDS011;4610;50.006;7.490;2023-03-01T10:15:05;13.37;;;8.50;;
9150;SDS011;4610;50.006;7.490;2023-03-01T10:17:38;15.63;;;8.67;;
9150;SDS011;4610;50.006;7.490;2023-03-01T10:20:15;13.50;;;8.77;;
9150;SDS011;4610;50.006;7.490;2023-03-01T10:22:44;14.83;;;8.97;;
9150;SDS011;4610;50.006;7.490;2023-03-01T10:25:17;14.67;;;9.17;;
9150;SDS011;4610;50.006;7.490;2023-03-01T10:28:05;13.30;;;8.03;;
9150;SDS011;4610;50.006;7.490;2023-03-01T10:30:40;11.27;;;8.37;;
9150;SDS011;4610;50.006;7.490;2023-03-01T10:33:10;17.03;;;8.93;;
9150;SDS011;4610;50.006;7.490;2023-03-01T10:35:43;13.03;;;8.83;;
9150;SDS011;4610;50.006;7.490;2023-03-01T10:38:10;12.47;;;8.60;;
9150;SDS011;4610;50.006;7.490;2023-03-01T10:40:51;14.07;;;8.70;;
9150;SDS011;4610;50.006;7.490;2023-03-01T10:43:20;12.90;;;8.00;;
9150;SDS011;4610;50.006;7.490;2023-03-01T10:45:47;16.37;;;8.90;;
9150;SDS011;4610;50.006;7.490;2023-03-01T10:48:15;15.60;;;9.37;;
9150;SDS011;4610;50.006;7.490;2023-03-01T10:50:44;13.43;;;8.70;;
9150;SDS011;4610;50.006;7.490;2023-03-01T10:53:20;16.23;;;8.47;;
9150;SDS011;4610;50.006;7.490;2023-03-01T10:56:02;14.93;;;9.03;;
9150;SDS011;4610;50.006;7.490;2023-03-01T10:58:32;15.23;;;8.87;;
9150;SDS011;4610;50.006;7.490;2023-03-01T11:01:00;16.23;;;9.63;;
9150;SDS011;4610;50.006;7.490;2023-03-01T11:03:29;12.53;;;8.47;;
9150;SDS011;4610;50.006;7.490;2023-03-01T11:05:59;14.97;;;9.47;;
9150;SDS011;4610;50.006;7.490;2023-03-01T11:08:33;13.43;;;9.10;;
9150;SDS011;4610;50.006;7.490;2023-03-01T11:13:51;13.33;;;8.63;;
9150;SDS011;4610;50.006;7.490;2023-03-01T11:16:27;18.80;;;9.07;;
9150;SDS011;4610;50.006;7.490;2023-03-01T11:18:58;20.73;;;9.73;;
9150;SDS011;4610;50.006;7.490;2023-03-01T11:21:28;6.07;;;3.53;;
9150;SDS011;4610;50.006;7.490;2023-03-01T11:23:58;14.03;;;8.83;;
9150;SDS011;4610;50.006;7.490;2023-03-01T11:26:29;14.10;;;8.50;;
9150;SDS011;4610;50.006;7.490;2023-03-01T11:29:01;75.50;;;27.70;;
9150;SDS011;4610;50.006;7.490;2023-03-01T11:31:33;43.77;;;15.53;;
9150;SDS011;4610;50.006;7.490;2023-03-01T11:34:03;21.37;;;9.93;;
9150;SDS011;4610;50.006;7.490;2023-03-01T11:36:39;19.33;;;9.73;;
9150;SDS011;4610;50.006;7.490;2023-03-01T11:39:15;14.40;;;9.30;;
9150;SDS011;4610;50.006;7.490;2023-03-01T11:41:52;25.40;;;14.33;;
9150;SDS011;4610;50.006;7.490;2023-03-01T11:44:30;17.20;;;9.23;;
9150;SDS011;4610;50.006;7.490;2023-03-01T11:47:06;28.90;;;14.93;;
9150;SDS011;4610;50.006;7.490;2023-03-01T11:49:50;15.20;;;9.60;;
9150;SDS011;4610;50.006;7.490;2023-03-01T11:52:36;17.73;;;10.63;;
9150;SDS011;4610;50.006;7.490;2023-03-01T11:55:19;14.70;;;9.03;;
9150;SDS011;4610;50.006;7.490;2023-03-01T11:58:07;19.07;;;10.70;;
9150;SDS011;4610;50.006;7.490;2023-03-01T12:01:00;18.27;;;9.60;;
9150;SDS011;4610;50.006;7.490;2023-03-01T12:03:39;20.87;;;10.60;;
9150;SDS011;4610;50.006;7.490;2023-03-01T12:06:19;13.97;;;9.23;;
9150;SDS011;4610;50.006;7.490;2023-03-01T12:08:56;13.30;;;9.07;;
9150;SDS011;4610;50.006;7.490;2023-03-01T12:11:36;17.40;;;10.30;;
9150;SDS011;4610;50.006;7.490;2023-03-01T12:14:16;17.10;;;10.03;;
9150;SDS011;4610;50.006;7.490;2023-03-01T12:20:21;15.47;;;9.87;;
9150;SDS011;4610;50.006;7.490;2023-03-01T12:23:00;12.97;;;8.90;;
9150;SDS011;4610;50.006;7.490;2023-03-01T12:25:38;14.57;;;9.27;;
9150;SDS011;4610;50.006;7.490;2023-03-01T12:28:12;14.57;;;9.27;;
9150;SDS011;4610;50.006;7.490;2023-03-01T12:30:56;13.87;;;9.07;;
9150;SDS011;4610;50.006;7.490;2023-03-01T12:33:38;14.63;;;8.37;;
9150;SDS011;4610;50.006;7.490;2023-03-01T12:36:19;15.47;;;8.73;;
9150;SDS011;4610;50.006;7.490;2023-03-01T12:38:59;16.93;;;8.33;;
9150;SDS011;4610;50.006;7.490;2023-03-01T12:41:46;12.57;;;8.73;;
9150;SDS011;4610;50.006;7.490;2023-03-01T12:44:23;13.97;;;8.60;;
9150;SDS011;4610;50.006;7.490;2023-03-01T12:47:05;18.07;;;8.87;;
9150;SDS011;4610;50.006;7.490;2023-03-01T12:49:40;13.80;;;8.27;;
9150;SDS011;4610;50.006;7.490;2023-03-01T12:52:11;13.63;;;8.67;;
9150;SDS011;4610;50.006;7.490;2023-03-01T12:54:41;11.53;;;8.13;;
9150;SDS011;4610;50.006;7.490;2023-03-01T12:57:09;12.03;;;8.30;;
9150;SDS011;4610;50.006;7.490;2023-03-01T12:59:42;13.60;;;8.43;;
9150;SDS011;4610;50.006;7.490;2023-03-01T13:02:21;15.07;;;9.30;;
9150;SDS011;4610;50.006;7.490;2023-03-01T13:04:53;12.67;;;8.13;;
9150;SDS011;4610;50.006;7.490;2023-03-01T13:07:30;11.73;;;8.20;;
9150;SDS011;4610;50.006;7.490;2023-03-01T13:10:16;12.10;;;8.00;;
9150;SDS011;4610;50.006;7.490;2023-03-01T13:12:51;19.13;;;8.30;;
9150;SDS011;4610;50.006;7.490;2023-03-01T13:15:28;14.37;;;8.93;;
9150;SDS011;4610;50.006;7.490;2023-03-01T13:17:59;15.37;;;8.73;;
9150;SDS011;4610;50.006;7.490;2023-03-01T13:20:30;11.33;;;7.83;;
9150;SDS011;4610;50.006;7.490;2023-03-01T13:23:09;13.57;;;8.20;;
9150;SDS011;4610;50.006;7.490;2023-03-01T13:28:46;13.00;;;7.63;;
9150;SDS011;4610;50.006;7.490;2023-03-01T13:34:46;12.27;;;7.97;;
9150;SDS011;4610;50.006;7.490;2023-03-01T13:37:18;15.00;;;7.00;;
9150;SDS011;4610;50.006;7.490;2023-03-01T13:39:47;12.60;;;7.77;;
9150;SDS011;4610;50.006;7.490;2023-03-01T13:45:16;13.80;;;7.17;;
9150;SDS011;4610;50.006;7.490;2023-03-01T13:47:50;12.27;;;7.70;;
9150;SDS011;4610;50.006;7.490;2023-03-01T13:50:24;12.10;;;7.40;;
9150;SDS011;4610;50.006;7.490;2023-03-01T13:52:54;14.80;;;7.00;;
9150;SDS011;4610;50.006;7.490;2023-03-01T13:55:25;13.23;;;7.63;;
9150;SDS011;4610;50.006;7.490;2023-03-01T13:58:01;11.60;;;7.30;;
9150;SDS011;4610;50.006;7.490;2023-03-01T14:00:32;10.67;;;6.50;;
9150;SDS011;4610;50.006;7.490;2023-03-01T14:03:12;13.47;;;7.07;;
9150;SDS011;4610;50.006;7.490;2023-03-01T14:05:42;13.93;;;6.93;;
9150;SDS011;4610;50.006;7.490;2023-03-01T14:08:23;10.43;;;6.60;;
9150;SDS011;4610;50.006;7.490;2023-03-01T14:10:58;12.40;;;6.73;;
9150;SDS011;4610;50.006;7.490;2023-03-01T14:13:41;12.03;;;7.60;;
9150;SDS011;4610;50.006;7.490;2023-03-01T14:16:20;14.07;;;6.17;;
9150;SDS011;4610;50.006;7.490;2023-03-01T14:18:57;12.00;;;6.83;;
9150;SDS011;4610;50.006;7.490;2023-03-01T14:21:34;9.40;;;6.00;;
9150;SDS011;4610;50.006;7.490;2023-03-01T14:24:01;12.53;;;7.07;;
9150;SDS011;4610;50.006;7.490;2023-03-01T14:26:29;9.87;;;6.33;;
9150;SDS011;4610;50.006;7.490;2023-03-01T14:28:58;10.50;;;6.13;;
9150;SDS011;4610;50.006;7.490;2023-03-01T14:31:37;10.00;;;5.50;;
9150;SDS011;4610;50.006;7.490;2023-03-01T14:34:16;9.40;;;6.10;;
9150;SDS011;4610;50.006;7.490;2023-03-01T14:36:49;9.53;;;5.77;;
9150;SDS011;4610;50.006;7.490;2023-03-01T14:39:16;9.00;;;5.93;;
9150;SDS011;4610;50.006;7.490;2023-03-01T14:41:44;8.57;;;5.90;;
9150;SDS011;4610;50.006;7.490;2023-03-01T14:44:12;13.77;;;5.50;;
9150;SDS011;4610;50.006;7.490;2023-03-01T14:46:45;8.40;;;5.70;;
9150;SDS011;4610;50.006;7.490;2023-03-01T14:49:14;10.40;;;5.90;;
9150;SDS011;4610;50.006;7.490;2023-03-01T14:51:44;10.07;;;5.50;;
9150;SDS011;4610;50.006;7.490;2023-03-01T14:54:20;8.63;;;5.63;;
9150;SDS011;4610;50.006;7.490;2023-03-01T14:56:51;8.20;;;5.33;;
9150;SDS011;4610;50.006;7.490;2023-03-01T14:59:19;7.43;;;5.20;;
9150;SDS011;4610;50.006;7.490;2023-03-01T15:01:48;9.23;;;5.20;;
9150;SDS011;4610;50.006;7.490;2023-03-01T15:04:16;10.33;;;5.63;;
9150;SDS011;4610;50.006;7.490;2023-03-01T15:06:45;10.27;;;5.67;;
9150;SDS011;4610;50.006;7.490;2023-03-01T15:09:15;8.50;;;5.33;;
9150;SDS011;4610;50.006;7.490;2023-03-01T15:11:43;7.63;;;5.13;;
9150;SDS011;4610;50.006;7.490;2023-03-01T15:14:26;12.60;;;5.63;;
9150;SDS011;4610;50.006;7.490;2023-03-01T15:16:55;11.23;;;4.93;;
9150;SDS011;4610;50.006;7.490;2023-03-01T15:19:23;7.63;;;4.67;;
9150;SDS011;4610;50.006;7.490;2023-03-01T15:21:53;8.80;;;5.17;;
9150;SDS011;4610;50.006;7.490;2023-03-01T15:24:24;8.53;;;5.07;;
9150;SDS011;4610;50.006;7.490;2023-03-01T15:26:54;9.03;;;4.93;;
9150;SDS011;4610;50.006;7.490;2023-03-01T15:29:23;7.27;;;4.80;;
9150;SDS011;4610;50.006;7.490;2023-03-01T15:31:55;9.47;;;4.60;;
9150;SDS011;4610;50.006;7.490;2023-03-01T15:34:23;8.50;;;4.37;;
9150;SDS011;4610;50.006;7.490;2023-03-01T15:36:52;8.00;;;5.20;;